Time;durP1;ratioP1;P1;durP2;ratioP2;P2;SDS_P1;SDS_P2;PMS_P1;PMS_P2;Temp;Humidity;BMP_temperature;BMP_pressure;BME280_temperature;BME280_humidity;BME280_pressure;Samples;Min_cycle;Max_cycle;Signal;HPM_P1;HPM_P2
2023/10/22 00:01:17;;;;;;;1.85;1.40;;;;;;;10.12;100.00;97358.59;6108662;19;20010;-73
2023/10/22 00:03:17;;;;;;;1.48;1.33;;;;;;;10.13;100.00;97372.00;6107978;19;20066;-73
2023/10/22 00:05:17;;;;;;;1.63;1.30;;;;;;;10.09;100.00;97362.94;6108769;19;20029;-73
2023/10/22 00:07:18;;;;;;;3.88;1.30;;;;;;;10.10;100.00;97372.81;6109019;19;20321;-73
2023/10/22 00:09:18;;;;;;;6.00;1.35;;;;;;;10.13;100.00;97368.44;6109050;19;20066;-72
2023/10/22 00:11:19;;;;;;;3.08;1.23;;;;;;;10.15;100.00;97377.13;6109196;19;20031;-73
2023/10/22 00:13:19;;;;;;;2.55;1.50;;;;;;;10.08;100.00;97369.66;6106920;19;20349;-73
2023/10/22 00:15:24;;;;;;;2.97;1.30;;;;;;;10.04;100.00;97374.41;6108970;19;20542;-73
2023/10/22 00:17:24;;;;;;;1.38;1.13;;;;;;;9.97;100.00;97374.44;6108929;19;20018;-73
2023/10/22 00:19:25;;;;;;;1.58;1.20;;;;;;;9.91;100.00;97373.28;6108763;19;20018;-72
2023/10/22 00:21:25;;;;;;;1.48;1.30;;;;;;;9.87;100.00;97386.31;6108665;19;20011;-73
2023/10/22 00:23:26;;;;;;;2.08;1.38;;;;;;;9.81;100.00;97387.91;6106787;19;20003;-72
2023/10/22 00:25:26;;;;;;;3.40;1.30;;;;;;;9.78;100.00;97385.97;6108930;19;20025;-72
2023/10/22 00:27:26;;;;;;;2.10;1.30;;;;;;;9.69;100.00;97399.41;6108541;19;20048;-73
2023/10/22 00:29:27;;;;;;;2.00;1.05;;;;;;;9.67;100.00;97379.66;6108528;19;20027;-73
2023/10/22 00:31:27;;;;;;;2.28;1.20;;;;;;;9.68;100.00;97382.03;6108296;19;20037;-73
2023/10/22 00:33:27;;;;;;;1.50;1.10;;;;;;;9.66;100.00;97380.84;6107746;19;20010;-73
2023/10/22 00:35:28;;;;;;;1.20;1.10;;;;;;;9.65;100.00;97377.28;6108550;19;20010;-73
2023/10/22 00:37:29;;;;;;;2.20;1.15;;;;;;;9.65;100.00;97387.56;6106001;19;20023;-72
2023/10/22 00:39:29;;;;;;;2.65;1.17;;;;;;;9.62;100.00;97380.06;6108116;19;20013;-73
2023/10/22 00:41:29;;;;;;;2.53;2.00;;;;;;;9.64;100.00;97389.53;6107793;19;20433;-72
2023/10/22 00:43:30;;;;;;;2.00;1.27;;;;;;;9.63;100.00;97387.19;6107529;19;20345;-72
2023/10/22 00:45:35;;;;;;;2.03;1.27;;;;;;;9.65;100.00;97388.34;6107953;19;20451;-72
2023/10/22 00:47:36;;;;;;;3.40;1.58;;;;;;;9.60;100.00;97383.25;6108476;19;20002;-72
2023/10/22 00:49:37;;;;;;;1.73;1.30;;;;;;;9.61;100.00;97381.28;6094665;19;20044;-73
2023/10/22 00:51:37;;;;;;;2.67;1.27;;;;;;;9.66;100.00;97383.59;6107962;19;20010;-72
2023/10/22 00:53:38;;;;;;;3.95;1.63;;;;;;;9.71;100.00;97385.97;6107537;19;20010;-72
2023/10/22 00:55:40;;;;;;;1.70;1.60;;;;;;;9.71;100.00;97388.72;6107550;19;20340;-72
2023/10/22 00:57:41;;;;;;;3.13;1.30;;;;;;;9.69;100.00;97386.38;6107483;19;20018;-72
2023/10/22 00:59:41;;;;;;;1.75;1.55;;;;;;;9.65;100.00;97374.53;6107696;19;20626;-73
2023/10/22 01:01:44;;;;;;;1.80;1.30;;;;;;;9.64;100.00;97384.00;6107810;19;20011;-73
2023/10/22 01:03:44;;;;;;;2.00;1.38;;;;;;;9.62;100.00;97378.09;6104855;19;20009;-73
2023/10/22 01:05:45;;;;;;;2.33;1.40;;;;;;;9.58;100.00;97378.09;6106963;19;20011;-72
2023/10/22 01:07:47;;;;;;;2.20;1.30;;;;;;;9.57;100.00;97373.75;6104822;19;20019;-72
2023/10/22 01:09:47;;;;;;;1.42;1.20;;;;;;;9.54;100.00;97373.78;6108339;19;20415;-72
2023/10/22 01:12:04;;;;;;;1.77;1.30;;;;;;;9.51;100.00;97367.06;6106448;19;20042;-72
2023/10/22 01:14:05;;;;;;;2.35;1.73;;;;;;;9.53;100.00;97378.53;6104955;19;20006;-72
2023/10/22 01:16:08;;;;;;;3.17;1.85;;;;;;;9.54;100.00;97365.50;6107121;19;20035;-72
2023/10/22 01:18:08;;;;;;;5.00;1.65;;;;;;;9.58;100.00;97383.63;6106023;19;20003;-73
2023/10/22 01:20:09;;;;;;;2.53;1.52;;;;;;;9.57;100.00;97375.75;6106395;19;20762;-72
2023/10/22 01:22:09;;;;;;;1.83;1.40;;;;;;;9.57;100.00;97378.50;6106827;19;20466;-73
2023/10/22 01:24:10;;;;;;;2.28;1.60;;;;;;;9.51;100.00;97361.53;6105932;19;19999;-72
2023/10/22 01:26:10;;;;;;;1.75;1.52;;;;;;;9.51;100.00;97372.59;6105697;19;20009;-72
2023/10/22 01:28:10;;;;;;;3.17;1.50;;;;;;;9.44;100.00;97367.09;6106600;19;20388;-73
2023/10/22 01:30:11;;;;;;;3.70;1.48;;;;;;;9.40;100.00;97357.25;6106316;19;20070;-73
2023/10/22 01:32:12;;;;;;;2.60;1.33;;;;;;;9.45;100.00;97362.38;6106023;19;20466;-72
2023/10/22 01:34:13;;;;;;;1.40;1.25;;;;;;;9.40;100.00;97360.00;6101736;19;20014;-73
2023/10/22 01:36:13;;;;;;;2.58;1.50;;;;;;;9.32;100.00;97359.22;6103739;19;20059;-73
2023/10/22 01:38:13;;;;;;;4.43;1.30;;;;;;;9.30;100.00;97364.34;6105849;19;20030;-73
2023/10/22 01:40:14;;;;;;;2.70;1.50;;;;;;;9.26;100.00;97361.59;6104931;19;20021;-73
2023/10/22 01:42:14;;;;;;;2.20;1.52;;;;;;;9.29;100.00;97360.03;6106227;19;20011;-72
2023/10/22 01:44:15;;;;;;;2.63;1.73;;;;;;;9.36;100.00;97362.00;6105525;19;20005;-73
2023/10/22 01:46:15;;;;;;;1.90;1.50;;;;;;;9.37;100.00;97361.59;6103950;19;20014;-73
2023/10/22 01:48:16;;;;;;;2.90;1.50;;;;;;;9.37;100.00;97364.34;6104857;19;20103;-72
2023/10/22 01:50:16;;;;;;;1.88;1.35;;;;;;;9.38;100.00;97363.16;6097630;19;20010;-73
2023/10/22 01:52:16;;;;;;;1.92;1.60;;;;;;;9.38;100.00;97365.91;6097278;19;20451;-73
2023/10/22 01:54:17;;;;;;;1.58;1.30;;;;;;;9.38;100.00;97371.44;6097932;19;20003;-73
2023/10/22 01:56:17;;;;;;;1.83;1.20;;;;;;;9.40;100.00;97371.81;6098395;19;20307;-73
2023/10/22 01:58:17;;;;;;;2.17;1.40;;;;;;;9.42;100.00;97369.44;6099949;19;20018;-72
2023/10/22 02:00:18;;;;;;;3.40;1.70;;;;;;;9.39;100.00;97375.78;6103962;19;20028;-73
2023/10/22 02:02:18;;;;;;;4.53;2.78;;;;;;;9.37;100.00;97380.13;6103657;19;19998;-73
2023/10/22 02:04:18;;;;;;;3.03;1.50;;;;;;;9.34;100.00;97386.41;6103041;19;20103;-73
2023/10/22 02:06:19;;;;;;;2.63;1.45;;;;;;;9.33;100.00;97382.09;6102963;19;20402;-73
2023/10/22 02:08:19;;;;;;;3.17;1.40;;;;;;;9.31;100.00;97385.25;6100165;19;20348;-73
2023/10/22 02:10:20;;;;;;;1.80;1.52;;;;;;;9.31;100.00;97379.72;6101979;19;20010;-72
2023/10/22 02:12:28;;;;;;;2.90;1.38;;;;;;;9.31;100.00;97384.47;6103265;19;20127;-72
2023/10/22 02:14:28;;;;;;;3.28;1.42;;;;;;;9.32;100.00;97380.50;6102688;19;20002;-72
2023/10/22 02:16:28;;;;;;;1.65;1.25;;;;;;;9.32;100.00;97386.81;6102633;19;20565;-72
2023/10/22 02:18:29;;;;;;;2.47;1.30;;;;;;;9.32;100.00;97373.03;6102473;19;20007;-73
2023/10/22 02:20:29;;;;;;;1.50;1.40;;;;;;;9.29;100.00;97384.88;6102486;19;20328;-73
2023/10/22 02:22:30;;;;;;;2.05;1.30;;;;;;;9.28;100.00;97378.56;6103195;19;20014;-72
2023/10/22 02:24:30;;;;;;;1.90;1.25;;;;;;;9.28;100.00;97377.78;6104087;19;20419;-73
2023/10/22 02:26:30;;;;;;;1.38;1.20;;;;;;;9.23;100.00;97369.88;6102694;19;20025;-72
2023/10/22 02:28:32;;;;;;;1.38;1.10;;;;;;;9.22;100.00;97371.06;6103877;19;20017;-73
2023/10/22 02:30:32;;;;;;;2.53;1.20;;;;;;;9.21;100.00;97375.00;6103114;19;20223;-72
2023/10/22 02:32:33;;;;;;;1.60;1.25;;;;;;;9.24;100.00;97374.22;6103256;19;20471;-72
2023/10/22 02:34:35;;;;;;;1.98;1.10;;;;;;;9.26;100.00;97377.34;6102798;19;20447;-72
2023/10/22 02:36:36;;;;;;;3.97;1.42;;;;;;;9.30;100.00;97375.41;6101975;19;20520;-73
2023/10/22 02:38:37;;;;;;;3.35;1.58;;;;;;;9.34;100.00;97386.41;6104945;19;20034;-72
2023/10/22 02:40:37;;;;;;;2.78;1.20;;;;;;;9.42;100.00;97383.25;6102705;19;20015;-72
2023/10/22 02:42:37;;;;;;;1.80;0.93;;;;;;;9.44;100.00;97380.13;6103913;19;20024;-73
2023/10/22 02:44:37;;;;;;;1.58;1.48;;;;;;;9.45;100.00;97388.00;6102449;19;20551;-73
2023/10/22 02:46:38;;;;;;;1.50;1.20;;;;;;;9.50;100.00;97384.81;6104062;19;20015;-72
2023/10/22 02:48:38;;;;;;;3.40;1.20;;;;;;;9.51;100.00;97394.69;6102481;19;20002;-72
2023/10/22 02:50:38;;;;;;;1.55;1.08;;;;;;;9.54;100.00;97393.13;6111534;19;20014;-72
2023/10/22 02:52:39;;;;;;;1.88;1.30;;;;;;;9.60;100.00;97396.25;6110425;19;20023;-72
2023/10/22 02:54:39;;;;;;;1.38;1.15;;;;;;;9.57;100.00;97395.84;6110596;19;20002;-72
2023/10/22 02:56:39;;;;;;;3.30;1.25;;;;;;;9.55;100.00;97389.16;6110889;19;20011;-72
2023/10/22 02:58:40;;;;;;;1.65;1.10;;;;;;;9.50;100.00;97393.09;6111424;19;20007;-72
2023/10/22 03:00:40;;;;;;;2.03;1.08;;;;;;;9.46;100.00;97402.59;6109802;19;20003;-73
2023/10/22 03:02:41;;;;;;;1.88;1.20;;;;;;;9.38;100.00;97399.03;6111298;19;20554;-72
2023/10/22 03:04:41;;;;;;;3.30;1.15;;;;;;;9.33;100.00;97399.44;6109041;19;20002;-72
2023/10/22 03:06:41;;;;;;;1.83;1.10;;;;;;;9.28;100.00;97402.63;6111255;19;20010;-72
2023/10/22 03:08:42;;;;;;;1.67;1.10;;;;;;;9.20;100.00;97412.88;6109872;19;20031;-72
2023/10/22 03:10:42;;;;;;;2.20;1.35;;;;;;;9.16;100.00;97406.53;6111635;19;20239;-72
2023/10/22 03:12:42;;;;;;;1.75;1.02;;;;;;;9.12;100.00;97419.56;6109008;19;20028;-72
2023/10/22 03:14:43;;;;;;;1.77;1.38;;;;;;;9.09;100.00;97411.28;6109645;19;20007;-73
2023/10/22 03:16:43;;;;;;;2.35;1.65;;;;;;;9.08;100.00;97415.22;6111847;19;20028;-72
2023/10/22 03:18:45;;;;;;;2.03;1.10;;;;;;;9.07;100.00;97408.13;6109584;19;20014;-72
2023/10/22 03:20:46;;;;;;;3.30;1.10;;;;;;;9.11;100.00;97409.72;6109931;19;20415;-72
2023/10/22 03:22:47;;;;;;;2.20;1.40;;;;;;;9.21;100.00;97410.91;6108568;19;20007;-72
2023/10/22 03:24:51;;;;;;;2.47;1.13;;;;;;;9.26;100.00;97416.78;6111759;19;20038;-72
2023/10/22 03:26:52;;;;;;;2.63;1.30;;;;;;;9.27;100.00;97410.09;6111269;19;20014;-72
2023/10/22 03:28:52;;;;;;;1.98;1.30;;;;;;;9.26;100.00;97408.50;6109516;19;20026;-72
2023/10/22 03:30:53;;;;;;;3.05;1.88;;;;;;;9.32;100.00;97400.63;6109532;19;20015;-72
2023/10/22 03:32:56;;;;;;;5.25;1.50;;;;;;;9.42;100.00;97399.03;6110529;19;20017;-72
2023/10/22 03:34:56;;;;;;;4.60;1.63;;;;;;;9.41;100.00;97405.75;6110386;19;20011;-72
2023/10/22 03:36:56;;;;;;;4.28;1.50;;;;;;;9.33;100.00;97404.16;6108324;19;20014;-72
2023/10/22 03:38:57;;;;;;;1.52;1.13;;;;;;;9.35;100.00;97408.13;6110271;19;20030;-72
2023/10/22 03:41:02;;;;;;;2.50;1.20;;;;;;;9.32;100.00;97408.13;6109590;19;20002;-72
2023/10/22 03:43:02;;;;;;;2.38;1.25;;;;;;;9.36;100.00;97406.16;6108628;19;20021;-73
2023/10/22 03:45:03;;;;;;;3.22;1.10;;;;;;;9.36;100.00;97401.44;6110514;19;20002;-72
2023/10/22 03:47:03;;;;;;;3.33;1.35;;;;;;;9.42;100.00;97399.81;6110164;19;20082;-72
2023/10/22 03:49:04;;;;;;;3.08;1.33;;;;;;;9.47;100.00;97404.16;6107871;19;20103;-72
2023/10/22 03:51:04;;;;;;;1.58;1.13;;;;;;;9.54;100.00;97404.94;6110011;19;20012;-72
2023/10/22 03:53:04;;;;;;;4.45;1.48;;;;;;;9.63;100.00;97417.56;6108260;19;20025;-72
2023/10/22 03:55:06;;;;;;;5.40;1.52;;;;;;;9.63;100.00;97406.50;6110175;19;20026;-74
2023/10/22 03:57:06;;;;;;;1.98;1.10;;;;;;;9.61;100.00;97415.19;6108983;19;20009;-72
2023/10/22 03:59:07;;;;;;;1.58;1.00;;;;;;;9.55;100.00;97411.25;6108298;19;20011;-72
2023/10/22 04:01:08;;;;;;;3.78;1.40;;;;;;;9.51;100.00;97422.28;6108970;19;19999;-72
2023/10/22 04:03:08;;;;;;;3.10;1.25;;;;;;;9.50;100.00;97411.66;6106958;19;20090;-72
2023/10/22 04:05:08;;;;;;;1.25;1.08;;;;;;;9.51;100.00;97419.53;6107009;19;19999;-72
2023/10/22 04:07:10;;;;;;;1.85;1.00;;;;;;;9.51;100.00;97422.28;6106753;19;20086;-72
2023/10/22 04:09:11;;;;;;;1.50;1.13;;;;;;;9.47;100.00;97438.09;6108446;19;20384;-72
2023/10/22 04:11:11;;;;;;;2.83;1.10;;;;;;;9.42;100.00;97444.00;6108683;19;20032;-72
2023/10/22 04:13:12;;;;;;;1.88;1.23;;;;;;;9.39;100.00;97450.31;6106908;19;20137;-72
2023/10/22 04:15:12;;;;;;;3.50;1.40;;;;;;;9.27;100.00;97456.25;6106597;19;20362;-72
2023/10/22 04:17:12;;;;;;;1.95;1.20;;;;;;;9.16;100.00;97447.94;6107653;19;20466;-72
2023/10/22 04:19:13;;;;;;;1.83;1.42;;;;;;;9.07;100.00;97455.81;6108450;19;20010;-72
2023/10/22 04:21:14;;;;;;;3.28;1.33;;;;;;;8.97;100.00;97457.38;6105755;19;20002;-72
2023/10/22 04:23:15;;;;;;;3.17;1.27;;;;;;;8.87;100.00;97455.41;6107547;19;20011;-72
2023/10/22 04:25:15;;;;;;;3.28;1.30;;;;;;;8.81;100.00;97456.97;6108598;19;20010;-72
2023/10/22 04:27:15;;;;;;;1.75;1.02;;;;;;;8.77;100.00;97458.13;6107996;19;20406;-72
2023/10/22 04:29:16;;;;;;;3.28;1.20;;;;;;;8.69;100.00;97458.13;6108618;19;20011;-72
2023/10/22 04:31:16;;;;;;;1.40;1.00;;;;;;;8.61;100.00;97459.28;6106983;19;20439;-72
2023/10/22 04:33:16;;;;;;;1.73;1.20;;;;;;;8.54;100.00;97452.97;6106677;19;20019;-72
2023/10/22 04:35:18;;;;;;;2.28;1.20;;;;;;;8.53;100.00;97452.19;6108848;19;20002;-72
2023/10/22 04:37:19;;;;;;;3.08;1.20;;;;;;;8.53;100.00;97457.69;6105221;19;20002;-72
2023/10/22 04:39:20;;;;;;;2.95;1.27;;;;;;;8.50;100.00;97457.66;6108335;19;20548;-72
2023/10/22 04:41:20;;;;;;;3.90;1.40;;;;;;;8.42;100.00;97463.16;6106739;19;20024;-72
2023/10/22 04:43:21;;;;;;;3.33;1.30;;;;;;;8.40;100.00;97454.47;6107370;19;20006;-72
2023/10/22 04:45:21;;;;;;;1.40;1.20;;;;;;;8.43;100.00;97453.69;6108682;19;20002;-72
2023/10/22 04:47:22;;;;;;;2.47;1.23;;;;;;;8.45;100.00;97461.59;6108419;19;20007;-72
2023/10/22 04:49:22;;;;;;;2.72;1.27;;;;;;;8.44;100.00;97457.28;6108869;19;20002;-72
2023/10/22 04:51:24;;;;;;;3.17;1.23;;;;;;;8.40;100.00;97457.25;6108360;19;20431;-72
2023/10/22 04:53:24;;;;;;;3.28;1.33;;;;;;;8.37;100.00;97448.97;6107506;19;20358;-72
2023/10/22 04:55:24;;;;;;;3.20;1.50;;;;;;;8.32;100.00;97452.06;6106893;19;20078;-72
2023/10/22 04:57:26;;;;;;;3.72;1.80;;;;;;;8.25;100.00;97447.31;6108901;19;20330;-72
2023/10/22 04:59:26;;;;;;;2.22;1.50;;;;;;;8.21;100.00;97440.22;6106648;19;20014;-72
2023/10/22 05:01:26;;;;;;;2.28;1.48;;;;;;;8.13;100.00;97440.19;6106952;19;20014;-72
2023/10/22 05:03:27;;;;;;;3.05;1.10;;;;;;;8.11;100.00;97447.25;6107960;19;20391;-72
2023/10/22 05:05:27;;;;;;;1.98;1.15;;;;;;;8.07;100.00;97449.19;6107353;19;20038;-72
2023/10/22 05:07:28;;;;;;;2.30;1.25;;;;;;;8.03;100.00;97456.66;6107960;19;20014;-72
2023/10/22 05:09:28;;;;;;;3.42;1.42;;;;;;;7.98;100.00;97465.28;6108282;19;20017;-72
2023/10/22 05:11:28;;;;;;;1.77;1.20;;;;;;;7.96;100.00;97465.69;6106583;19;20098;-72
2023/10/22 05:13:29;;;;;;;2.30;1.50;;;;;;;7.93;100.00;97474.69;6106944;19;20010;-72
2023/10/22 05:15:29;;;;;;;4.00;1.48;;;;;;;7.89;100.00;97477.44;6108812;19;20041;-72
2023/10/22 05:17:29;;;;;;;4.38;1.27;;;;;;;7.91;100.00;97482.56;6106415;19;20491;-73
2023/10/22 05:19:30;;;;;;;2.03;1.30;;;;;;;7.92;100.00;97480.59;6108181;19;20007;-72
2023/10/22 05:21:30;;;;;;;3.17;1.48;;;;;;;7.94;100.00;97473.50;6106675;19;20010;-72
2023/10/22 05:23:31;;;;;;;2.15;1.40;;;;;;;7.87;100.00;97482.53;6106153;19;20007;-72
2023/10/22 05:25:31;;;;;;;3.33;1.50;;;;;;;7.87;100.00;97470.75;6106624;19;20003;-72
2023/10/22 05:27:31;;;;;;;2.05;1.45;;;;;;;7.84;100.00;97474.25;6106615;19;20019;-72
2023/10/22 05:29:35;;;;;;;2.75;1.48;;;;;;;7.88;100.00;97472.31;6107388;19;20010;-72
2023/10/22 05:31:36;;;;;;;2.40;1.30;;;;;;;7.97;100.00;97480.25;6107073;19;20463;-72
2023/10/22 05:33:36;;;;;;;3.28;1.60;;;;;;;8.05;100.00;97474.38;6111619;19;20014;-72
2023/10/22 05:35:37;;;;;;;2.10;1.42;;;;;;;8.09;100.00;97488.16;6112023;19;20007;-72
2023/10/22 05:37:41;;;;;;;2.88;1.50;;;;;;;8.11;100.00;97497.63;6111444;19;20019;-72
2023/10/22 05:39:42;;;;;;;3.55;2.20;;;;;;;8.18;100.00;97492.16;6112097;19;20221;-72
2023/10/22 05:41:42;;;;;;;3.25;1.40;;;;;;;8.16;100.00;97494.50;6111742;19;20003;-72
2023/10/22 05:43:42;;;;;;;4.13;1.70;;;;;;;8.29;100.00;97505.22;6111948;19;20069;-72
2023/10/22 05:45:43;;;;;;;2.40;1.25;;;;;;;8.31;100.00;97506.38;6113322;19;20007;-72
2023/10/22 05:47:43;;;;;;;2.97;1.50;;;;;;;8.32;100.00;97512.69;6111331;19;20010;-72
2023/10/22 05:49:44;;;;;;;1.60;1.15;;;;;;;8.30;100.00;97513.09;6099925;19;20014;-72
2023/10/22 05:51:44;;;;;;;4.35;1.40;;;;;;;8.35;100.00;97518.25;6111840;19;20003;-72
2023/10/22 05:53:45;;;;;;;7.07;1.80;;;;;;;8.34;100.00;97516.63;6108469;19;20007;-72
2023/10/22 05:55:45;;;;;;;2.60;1.30;;;;;;;8.37;100.00;97523.38;6109416;19;20026;-72
2023/10/22 05:57:46;;;;;;;3.00;1.45;;;;;;;8.37;100.00;97535.19;6110003;19;20007;-72
2023/10/22 05:59:47;;;;;;;2.83;1.65;;;;;;;8.33;100.00;97537.09;6111265;19;20011;-72
2023/10/22 06:01:47;;;;;;;2.78;1.30;;;;;;;8.32;100.00;97534.75;6110798;19;20002;-72
2023/10/22 06:03:48;;;;;;;4.55;1.50;;;;;;;8.28;100.00;97531.97;6107862;19;20044;-72
2023/10/22 06:05:49;;;;;;;3.08;1.40;;;;;;;8.25;100.00;97542.97;6111645;19;20325;-72
2023/10/22 06:07:52;;;;;;;1.85;1.15;;;;;;;8.17;100.00;97540.16;6109559;19;20530;-72
2023/10/22 06:09:52;;;;;;;2.63;1.30;;;;;;;8.15;100.00;97542.53;6110263;19;20007;-72
2023/10/22 06:11:53;;;;;;;4.10;1.25;;;;;;;8.18;100.00;97538.97;6110484;19;20006;-72
2023/10/22 06:13:53;;;;;;;2.42;1.30;;;;;;;8.20;100.00;97540.59;6110832;19;20007;-72
2023/10/22 06:15:56;;;;;;;3.20;1.70;;;;;;;8.18;100.00;97544.50;6110149;19;20010;-72
2023/10/22 06:17:57;;;;;;;3.33;1.60;;;;;;;8.12;100.00;97548.03;6109035;19;20002;-72
2023/10/22 06:19:57;;;;;;;4.15;1.77;;;;;;;8.13;100.00;97555.91;6111695;19;20468;-72
2023/10/22 06:21:57;;;;;;;3.25;2.47;;;;;;;8.01;100.00;97550.69;6110168;19;20006;-72
2023/10/22 06:23:59;;;;;;;3.88;1.83;;;;;;;7.92;100.00;97560.47;6102379;19;20095;-72
2023/10/22 06:25:59;;;;;;;5.53;1.60;;;;;;;7.79;100.00;97574.53;6107583;19;20073;-72
2023/10/22 06:28:00;;;;;;;5.32;2.22;;;;;;;7.73;100.00;97573.31;6110617;19;20012;-72
2023/10/22 06:30:01;;;;;;;6.50;2.30;;;;;;;7.71;100.00;97569.38;6109763;19;20539;-72
2023/10/22 06:32:02;;;;;;;3.70;2.17;;;;;;;7.70;100.00;97570.53;6109632;19;20038;-72
2023/10/22 06:34:02;;;;;;;5.32;2.10;;;;;;;7.68;100.00;97568.16;6108989;19;20063;-72
2023/10/22 06:36:22;;;;;;;5.03;2.13;;;;;;;7.68;100.00;97579.16;6107783;19;20342;-72
2023/10/22 06:38:22;;;;;;;5.88;2.00;;;;;;;7.74;100.00;97585.13;6109427;19;20010;-72
2023/10/22 06:40:24;;;;;;;3.28;2.00;;;;;;;7.78;100.00;97595.00;6109134;19;20320;-72
2023/10/22 06:42:26;;;;;;;4.20;2.08;;;;;;;7.85;100.00;97585.97;6110594;19;20009;-72
2023/10/22 06:44:26;;;;;;;5.72;2.08;;;;;;;7.95;100.00;97585.28;6105461;19;20034;-72
2023/10/22 06:46:26;;;;;;;20.98;10.63;;;;;;;8.05;100.00;97597.56;6109600;19;20010;-72
2023/10/22 06:48:27;;;;;;;22.95;9.75;;;;;;;8.13;100.00;97596.44;6105078;19;20419;-72
2023/10/22 06:50:27;;;;;;;10.30;4.95;;;;;;;8.24;100.00;97599.25;6101463;19;20018;-72
2023/10/22 06:52:27;;;;;;;5.63;1.85;;;;;;;8.35;100.00;97591.88;6101980;19;20332;-72
2023/10/22 06:54:28;;;;;;;4.47;2.28;;;;;;;8.39;100.00;97595.44;6101139;19;20014;-72
2023/10/22 06:56:28;;;;;;;5.72;3.15;;;;;;;8.49;100.00;97593.91;6099407;19;20011;-72
2023/10/22 06:58:28;;;;;;;4.50;2.78;;;;;;;8.53;100.00;97595.53;6102461;19;20011;-72
2023/10/22 07:00:29;;;;;;;6.68;2.35;;;;;;;8.59;100.00;97601.44;6101302;19;20586;-72
2023/10/22 07:02:29;;;;;;;4.18;2.10;;;;;;;8.59;100.00;97598.69;6102776;19;20021;-72
2023/10/22 07:04:29;;;;;;;3.20;2.20;;;;;;;8.65;100.00;97602.69;6099513;19;20076;-72
2023/10/22 07:06:30;;;;;;;5.78;2.40;;;;;;;8.67;100.00;97598.34;6101199;19;20006;-72
2023/10/22 07:08:30;;;;;;;5.95;2.80;;;;;;;8.77;100.00;97607.88;6101221;19;20002;-72
2023/10/22 07:10:31;;;;;;;5.25;2.90;;;;;;;8.84;100.00;97593.28;6101578;19;20013;-72
2023/10/22 07:12:31;;;;;;;2.85;1.75;;;;;;;8.99;100.00;97600.47;6102115;19;20032;-72
2023/10/22 07:14:31;;;;;;;4.55;2.25;;;;;;;9.12;100.00;97603.66;6102130;19;20007;-72
2023/10/22 07:16:32;;;;;;;3.45;2.00;;;;;;;9.17;100.00;97606.03;6102302;19;20003;-72
2023/10/22 07:18:33;;;;;;;2.70;1.50;;;;;;;9.29;100.00;97611.22;6101606;19;20025;-72
2023/10/22 07:20:34;;;;;;;9.10;1.88;;;;;;;9.45;100.00;97619.13;6101805;19;20434;-72
2023/10/22 07:22:34;;;;;;;5.68;1.38;;;;;;;9.53;100.00;97621.50;6101606;19;20379;-72
2023/10/22 07:24:34;;;;;;;5.80;1.75;;;;;;;9.65;100.00;97614.03;6101580;19;20046;-72
2023/10/22 07:26:35;;;;;;;3.72;1.40;;;;;;;9.77;100.00;97617.22;6102092;19;20006;-72
2023/10/22 07:28:41;;;;;;;3.40;1.42;;;;;;;9.86;100.00;97611.28;6099765;19;20056;-72
2023/10/22 07:30:48;;;;;;;3.42;1.83;;;;;;;10.05;100.00;97616.41;6100303;19;20360;-72
2023/10/22 07:32:51;;;;;;;3.58;1.30;;;;;;;10.20;100.00;97611.69;6101284;19;20015;-72
2023/10/22 07:34:51;;;;;;;1.58;1.15;;;;;;;10.27;100.00;97619.22;6102369;19;20093;-72
2023/10/22 07:36:52;;;;;;;11.13;2.03;;;;;;;10.38;100.00;97609.69;6101553;19;20222;-72
2023/10/22 07:38:53;;;;;;;5.63;1.65;;;;;;;10.48;100.00;97623.91;6103068;19;20303;-72
2023/10/22 07:40:55;;;;;;;4.70;1.30;;;;;;;10.57;100.00;97619.53;6102067;19;20009;-72
2023/10/22 07:42:56;;;;;;;;;;;;;;;10.58;100.00;97612.81;6102584;19;20006;-72
2023/10/22 07:44:56;;;;;;;2.13;1.05;;;;;;;10.66;100.00;97610.81;6102792;19;19923;-72
2023/10/22 07:46:56;;;;;;;4.15;1.00;;;;;;;10.71;100.00;97613.19;6102218;19;20365;-72
2023/10/22 07:48:57;;;;;;;4.15;1.30;;;;;;;10.76;100.00;97610.03;6105309;19;20011;-72
2023/10/22 07:51:10;;;;;;;3.95;1.30;;;;;;;10.83;100.00;97604.44;6108212;19;20021;-72
2023/10/22 07:53:11;;;;;;;2.05;1.40;;;;;;;10.91;100.00;97616.28;6105072;19;20010;-72
2023/10/22 07:55:11;;;;;;;4.78;1.45;;;;;;;10.91;100.00;97616.28;6108874;19;20325;-72
2023/10/22 07:57:11;;;;;;;2.38;0.73;;;;;;;11.03;100.00;97624.16;6107737;19;20266;-72
2023/10/22 07:59:12;;;;;;;8.45;1.98;;;;;;;11.08;100.00;97620.94;6108531;19;19999;-72
2023/10/22 08:01:12;;;;;;;5.53;0.98;;;;;;;11.10;100.00;97618.59;6107339;19;20010;-72
2023/10/22 08:03:12;;;;;;;4.70;1.20;;;;;;;11.21;100.00;97615.75;6109018;19;19999;-72
2023/10/22 08:05:13;;;;;;;3.03;1.00;;;;;;;11.30;100.00;97615.31;6107967;19;20026;-72
2023/10/22 08:07:17;;;;;;;4.88;1.40;;;;;;;11.35;100.00;97628.75;6109312;19;20356;-72
2023/10/22 08:09:18;;;;;;;2.22;1.13;;;;;;;11.45;100.00;97614.84;6108743;19;20003;-72
2023/10/22 08:11:18;;;;;;;2.63;1.27;;;;;;;11.50;100.00;97631.03;6109672;19;19998;-72
2023/10/22 08:13:18;;;;;;;1.77;0.98;;;;;;;11.58;100.00;97628.22;6109415;19;20404;-72
2023/10/22 08:15:19;;;;;;;2.55;1.20;;;;;;;11.69;100.00;97643.59;6108371;19;20328;-72
2023/10/22 08:17:19;;;;;;;3.55;1.05;;;;;;;11.74;100.00;97645.13;6104988;19;20323;-72
2023/10/22 08:19:19;;;;;;;1.77;1.00;;;;;;;11.84;100.00;97646.31;6106508;19;20022;-72
2023/10/22 08:21:20;;;;;;;4.38;1.38;;;;;;;11.99;100.00;97667.16;6103887;19;19998;-72
2023/10/22 08:23:20;;;;;;;4.32;1.25;;;;;;;12.10;100.00;97662.34;6104498;19;20007;-72
2023/10/22 08:25:20;;;;;;;5.80;1.25;;;;;;;12.21;100.00;97682.44;6106306;19;20016;-72
2023/10/22 08:27:21;;;;;;;3.85;1.20;;;;;;;12.28;100.00;97684.38;6107946;19;20015;-72
2023/10/22 08:29:21;;;;;;;3.53;2.00;;;;;;;12.35;100.00;97696.22;6108212;19;20034;-72
2023/10/22 08:31:21;;;;;;;2.60;1.63;;;;;;;12.44;100.00;97698.53;6108939;19;20003;-72
2023/10/22 08:33:22;;;;;;;4.07;1.30;;;;;;;12.50;100.00;97702.44;6107457;19;20081;-72
2023/10/22 08:35:23;;;;;;;4.20;1.60;;;;;;;12.51;100.00;97706.78;6105750;19;20081;-72
2023/10/22 08:37:23;;;;;;;4.68;1.50;;;;;;;12.54;100.00;97707.94;6106872;19;20003;-72
2023/10/22 08:39:27;;;;;;;5.53;2.13;;;;;;;12.58;100.00;97715.06;6108697;19;20017;-72
2023/10/22 08:41:40;;;;;;;12.30;4.35;;;;;;;12.50;100.00;97699.66;6107884;19;20418;-72
2023/10/22 08:43:44;;;;;;;10.95;4.28;;;;;;;12.45;100.00;97711.19;6105222;19;20013;-72
2023/10/22 08:45:51;;;;;;;3.92;2.13;;;;;;;12.44;100.00;97704.06;6107290;19;20586;-72
2023/10/22 08:47:51;;;;;;;4.10;1.42;;;;;;;12.35;100.00;97721.19;6105795;19;20002;-72
2023/10/22 08:49:53;;;;;;;4.57;1.10;;;;;;;12.25;100.00;97710.97;6106056;19;20023;-72
2023/10/22 08:51:53;;;;;;;2.33;1.08;;;;;;;12.23;100.00;97720.88;6102770;19;20497;-72
2023/10/22 08:53:54;;;;;;;3.25;1.13;;;;;;;12.20;100.00;97722.47;6103257;19;20507;-72
2023/10/22 08:55:56;;;;;;;4.63;1.13;;;;;;;12.17;100.00;97716.97;6104448;19;20007;-72
2023/10/22 08:57:59;;;;;;;3.58;1.38;;;;;;;12.15;100.00;97720.13;6103410;19;20386;-72
2023/10/22 08:59:59;;;;;;;2.78;1.20;;;;;;;12.11;100.00;97730.47;6104120;19;20013;-72
2023/10/22 09:02:03;;;;;;;7.05;2.78;;;;;;;12.09;100.00;97728.09;6104193;19;20007;-72
2023/10/22 09:04:03;;;;;;;4.95;1.05;;;;;;;12.13;100.00;97718.97;6103585;19;20002;-72
2023/10/22 09:06:05;;;;;;;2.92;1.10;;;;;;;12.12;100.00;97718.19;6102253;19;20005;-72
2023/10/22 09:08:06;;;;;;;12.82;3.75;;;;;;;12.13;100.00;97724.50;6102290;19;20003;-72
2023/10/22 09:10:23;;;;;;;5.30;1.50;;;;;;;12.15;100.00;97735.97;6108011;19;19999;-72
2023/10/22 09:12:23;;;;;;;4.25;1.20;;;;;;;12.16;100.00;97730.00;6106605;19;20006;-72
2023/10/22 09:14:24;;;;;;;5.35;1.65;;;;;;;12.17;100.00;97737.16;6106665;19;20082;-72
2023/10/22 09:16:29;;;;;;;2.67;1.38;;;;;;;12.18;100.00;97730.41;6107664;19;20007;-72
2023/10/22 09:18:30;;;;;;;3.38;1.35;;;;;;;12.23;100.00;97735.50;6108012;19;20030;-72
2023/10/22 09:20:30;;;;;;;1.98;1.40;;;;;;;12.25;100.00;97737.91;6107349;19;20095;-72
2023/10/22 09:22:31;;;;;;;1.88;1.17;;;;;;;12.22;100.00;97735.94;6106976;19;20091;-72
2023/10/22 09:24:33;;;;;;;4.00;1.20;;;;;;;12.20;100.00;97746.66;6106574;19;20340;-72
2023/10/22 09:26:46;;;;;;;3.88;1.73;;;;;;;12.20;100.00;97747.44;6107315;19;20011;-72
2023/10/22 09:29:03;;;;;;;2.65;1.40;;;;;;;12.20;100.00;97749.41;6108124;19;20486;-72